Terminal Aerodrome Forecast
Issued by NWS Wilmington, OH

Current Version | Previous Version | Graphics & Text | Print | Product List | Glossary On
Versions: 1 2 3 4 5 6 7 8 9 10 11 12 13 14 15 16 17 18 19 20
000
FTUS41 KILN 180800 AAA
TAFCMH
TAF AMD
KCMH 180812Z 1808/1906 28012KT P6SM BKN025 OVC040
      TEMPO 1808/1810 -RA BKN018 OVC025
     FM181600 31014G24KT P6SM VCSH OVC025
      TEMPO 1819/1823 -SHRA
     FM182300 32012G18KT P6SM BKN025
      TEMPO 1823/1903 OVC018
     FM190300 33010KT P6SM OVC015=

USA.gov is the U.S. government's official web portal to all federal, state and local government web resources and services.